Flight Track Log - Related Links

Times and Time Zones

All times are in EDT time to prevent confusion due to time zone crossing. See the QFA796 flight status page for this flight to view local times or setup timezone preferences in your user account.


Time Position Orientation Groundspeed Altitude Reporting Facility
EDT Latitude Longitude Course Direction KTS MPH feet Rate Location/Type
Mon 06:57:32 PM -37.6600 144.8180 North 147 169 1,000  Level FlightAware ADS-B
Mon 06:57:52 PM -37.6590 144.7970 273° West 155 178 1,900 2,100 Climbing FlightAware ADS-B
Mon 06:58:12 PM -37.6580 144.7760 273° West 189 217 2,400 1,846 Climbing FlightAware ADS-B
Mon 06:58:31 PM -37.6570 144.7550 273° West 207 238 3,100 2,100 Climbing FlightAware ADS-B
Mon 06:58:52 PM -37.6550 144.7300 276° West 227 261 3,800 1,935 Climbing FlightAware ADS-B
Mon 06:59:02 PM -37.6530 144.7140 279° West 244 281 4,100 1,600 Climbing FlightAware ADS-B
Mon 06:59:07 PM -37.6500 144.7060 295° West 258 297 4,200 1,200 Climbing FlightAware ADS-B
Mon 06:59:22 PM -37.6390 144.6860 305° West 288 331 4,500 1,440 Climbing FlightAware ADS-B
Mon 06:59:32 PM -37.6310 144.6760 315° West 298 343 4,800 2,700 Climbing FlightAware ADS-B
Mon 06:59:42 PM -37.6170 144.6640 326° Northwest 310 357 5,400 3,000 Climbing FlightAware ADS-B
Mon 07:00:02 PM -37.5950 144.6450 326° Northwest 318 366 6,300 2,421 Climbing FlightAware ADS-B
Mon 07:00:39 PM -37.5430 144.6020 327° Northwest 349 402 7,700 2,421 Climbing FlightAware ADS-B
Mon 07:00:59 PM -37.5160 144.5790 326° Northwest 355 409 8,600 2,400 Climbing FlightAware ADS-B
Mon 07:01:19 PM -37.4880 144.5550 326° Northwest 370 426 9,300 2,291 Climbing FlightAware ADS-B
Mon 07:01:54 PM -37.4420 144.5160 326° Northwest 381 438 10,700 2,914 Climbing FlightAware ADS-B
Mon 07:02:29 PM -37.3870 144.4690 326° Northwest 385 443 12,700 3,257 Climbing FlightAware ADS-B
Mon 07:03:04 PM -37.3340 144.4250 327° Northwest 388 447 14,500 2,743 Climbing FlightAware ADS-B
Mon 07:03:39 PM -37.2810 144.3800 326° Northwest 398 458 15,900 2,314 Climbing FlightAware ADS-B
Mon 07:04:14 PM -37.2280 144.3350 326° Northwest 406 467 17,200 2,366 Climbing FlightAware ADS-B
Mon 07:04:50 PM -37.1700 144.2870 327° Northwest 412 474 18,700 2,282 Climbing FlightAware ADS-B
Mon 07:05:25 PM -37.1160 144.2410 326° Northwest 411 473 19,900 2,080 Climbing FlightAware ADS-B
Mon 07:06:05 PM -37.0490 144.1860 327° Northwest 424 488 21,300 1,870 Climbing FlightAware ADS-B
Mon 07:06:42 PM -36.9890 144.1360 326° Northwest 428 493 22,300 1,667 Climbing FlightAware ADS-B
Mon 07:07:17 PM -36.9300 144.0870 326° Northwest 433 498 23,300 1,714 Climbing FlightAware ADS-B
Mon 07:07:52 PM -36.8710 144.0370 326° Northwest 444 511 24,300 1,818 Climbing FlightAware ADS-B
Mon 07:08:23 PM -36.8154 143.9913 326° Northwest 440 506 25,300 1,543 Climbing Aus ATC (RADAR)
Mon 07:08:27 PM -36.8110 143.9870 326° Northwest 444 511 25,200 1,077 Descending FlightAware ADS-B
Mon 07:09:02 PM -36.7530 143.9330 323° Northwest 452 520 26,000 1,457 Climbing FlightAware ADS-B
Mon 07:09:37 PM -36.6960 143.8760 321° Northwest 454 522 26,900 1,727 Climbing FlightAware ADS-B
Mon 07:10:08 PM -36.6413 143.8237 321° Northwest 448 516 27,900 1,886 Climbing Aus ATC (RADAR)
Mon 07:10:12 PM -36.6370 143.8190 321° Northwest 451 519 28,000 2,057 Climbing FlightAware ADS-B
Mon 07:10:43 PM -36.5848 143.7678 321° Northwest 441 507 29,100 1,714 Climbing Aus ATC (RADAR)
Mon 07:10:47 PM -36.5800 143.7630 321° Northwest 447 514 29,000 1,231 Descending FlightAware ADS-B
Mon 07:11:22 PM -36.5230 143.7070 322° Northwest 447 514 29,900 1,545 Climbing FlightAware ADS-B
Mon 07:11:53 PM -36.4709 143.6570 322° Northwest 442 509 30,700 1,200 Climbing Aus ATC (RADAR)
Mon 07:11:57 PM -36.4660 143.6520 322° Northwest 448 516 30,600 1,231 Descending FlightAware ADS-B
Mon 07:12:32 PM -36.4090 143.5970 322° Northwest 438 504 31,500 1,629 Climbing FlightAware ADS-B
Mon 07:13:07 PM -36.3510 143.5400 322° Northwest 433 498 32,500 1,543 Climbing FlightAware ADS-B
Mon 07:13:42 PM -36.2970 143.4880 322° Northwest 432 497 33,300 1,114 Climbing FlightAware ADS-B
Mon 07:14:17 PM -36.2410 143.4340 322° Northwest 435 501 33,800 857 Climbing FlightAware ADS-B
Mon 07:14:52 PM -36.1850 143.3800 322° Northwest 436 502 34,300 1,029 Climbing FlightAware ADS-B
Mon 07:15:27 PM -36.1290 143.3260 322° Northwest 435 501 35,000 1,114 Climbing FlightAware ADS-B
Mon 07:16:02 PM -36.0710 143.2700 322° Northwest 434 499 35,600 1,108 Climbing FlightAware ADS-B
Mon 07:16:32 PM -36.0211 143.2221 322° Northwest 433 498 36,200 686 Climbing Aus ATC (RADAR)
Mon 07:16:37 PM -36.0170 143.2180 322° Northwest 433 498 36,000 -293 Descending FlightAware ADS-B
Mon 07:17:13 PM -35.9590 143.1620 322° Northwest 434 499 36,000  Level FlightAware ADS-B
Mon 07:17:47 PM -35.9030 143.1090 323° Northwest 436 502 36,000  Level FlightAware ADS-B
Mon 07:18:21 PM -35.8530 143.0610 323° Northwest 442 509 36,000 171 Level FlightAware ADS-B
Mon 07:18:22 PM -35.8436 143.0529 323° Northwest 439 505 36,100  Climbing Aus ATC (RADAR)
Mon 07:18:57 PM -35.7900 143.0020 323° Northwest 433 498 36,000 -80 Descending FlightAware ADS-B
Mon 07:19:37 PM -35.7250 142.9400 322° Northwest 432 497 36,000 86 Level FlightAware ADS-B
Mon 07:20:07 PM -35.6751 142.8921 322° Northwest 436 502 36,100  Climbing Aus ATC (RADAR)
Mon 07:20:13 PM -35.6700 142.8880 322° Northwest 432 497 36,000 -133 Descending FlightAware ADS-B
Mon 07:20:52 PM -35.6040 142.8240 322° Northwest 432 497 36,000  Level FlightAware ADS-B
Mon 07:21:26 PM -35.5480 142.7710 322° Northwest 433 498 36,000 92 Level FlightAware ADS-B
Mon 07:21:57 PM -35.4980 142.7244 322° Northwest 436 502 36,100  Climbing Aus ATC (RADAR)
Mon 07:21:58 PM -35.4990 142.7250 322° Northwest 432 497 36,000 -167 Descending FlightAware ADS-B
Mon 07:22:33 PM -35.4430 142.6730 323° Northwest 431 496 36,000  Level FlightAware ADS-B
Mon 07:23:08 PM -35.3860 142.6190 322° Northwest 430 495 36,000  Level FlightAware ADS-B
Mon 07:23:43 PM -35.3370 142.5730 323° Northwest 430 495 36,000  Level FlightAware ADS-B
Mon 07:24:18 PM -35.2730 142.5130 323° Northwest 431 496 36,000  Level FlightAware ADS-B
Mon 07:24:58 PM -35.2100 142.4540 323° Northwest 430 495 36,000  Level FlightAware ADS-B
Mon 07:25:28 PM -35.1610 142.4090 323° Northwest 426 490 36,000  Level FlightAware ADS-B
Mon 07:26:03 PM -35.1070 142.3580 322° Northwest 430 495 36,000  Level FlightAware ADS-B
Mon 07:26:38 PM -35.0520 142.3060 322° Northwest 429 494 36,000  Level FlightAware ADS-B
Mon 07:27:23 PM -34.9800 142.2400 323° Northwest 427 491 36,000  Level FlightAware ADS-B
Mon 07:27:58 PM -34.9250 142.1890 323° Northwest 426 490 36,000 247 Level FlightAware ADS-B
Mon 07:28:36 PM -34.8627 142.1314 323° Northwest 425 489 36,300  Climbing Aus ATC (RADAR)
Mon 07:28:38 PM -34.8630 142.1310 323° Northwest 426 490 36,000 -529 Descending FlightAware ADS-B
Mon 07:29:10 PM -34.8150 142.0870 323° Northwest 427 491 36,000  Level FlightAware ADS-B
Mon 07:29:50 PM -34.7520 142.0290 323° Northwest 426 490 36,000 250 Level FlightAware ADS-B
Mon 07:30:22 PM -34.6982 141.9799 323° Northwest 424 488 36,300  Climbing Aus ATC (RADAR)
Mon 07:30:25 PM -34.6970 141.9790 323° Northwest 426 490 36,000  Descending FlightAware ADS-B
Mon 07:30:56 PM -34.6433 141.9298 323° Northwest 422 486 36,300  Climbing Aus ATC (RADAR)
Mon 07:31:05 PM -34.6330 141.9200 323° Northwest 425 489 36,000 -409 Descending FlightAware ADS-B
Mon 07:31:40 PM -34.5760 141.8680 323° Northwest 423 487 36,000 269 Level FlightAware ADS-B
Mon 07:32:12 PM -34.5266 141.8226 323° Northwest 420 483 36,300  Climbing Aus ATC (RADAR)
Mon 07:32:15 PM -34.5230 141.8190 323° Northwest 422 486 36,000  Descending FlightAware ADS-B
Mon 07:32:47 PM -34.4723 141.7729 323° Northwest 418 481 36,300  Climbing Aus ATC (RADAR)
Mon 07:32:49 PM -34.4780 141.7780 323° Northwest 422 486 36,000 -462 Descending FlightAware ADS-B
Mon 07:33:26 PM -34.4140 141.7190 323° Northwest 419 482 36,000  Level FlightAware ADS-B
Mon 07:34:02 PM -34.3660 141.6760 324° Northwest 419 482 36,000  Level FlightAware ADS-B
Mon 07:34:49 PM -34.2860 141.6030 323° Northwest 418 481 36,000  Level FlightAware ADS-B
Mon 07:35:23 PM -34.2330 141.5550 323° Northwest 416 479 36,000  Level FlightAware ADS-B
Mon 07:35:58 PM -34.1810 141.5070 323° Northwest 414 476 36,000  Level FlightAware ADS-B
Mon 07:36:33 PM -34.1240 141.4560 323° Northwest 413 475 36,000  Level FlightAware ADS-B
Mon 07:37:08 PM -34.0730 141.4100 323° Northwest 412 474 36,000  Level FlightAware ADS-B
Mon 07:37:43 PM -34.0160 141.3590 323° Northwest 412 474 36,000  Level FlightAware ADS-B
Mon 07:38:19 PM -33.9660 141.3140 323° Northwest 411 473 36,000 265 Level FlightAware ADS-B
Mon 07:38:51 PM -33.9127 141.2662 323° Northwest 407 468 36,300  Climbing Aus ATC (RADAR)
Mon 07:38:58 PM -33.9040 141.2580 323° Northwest 411 473 36,000 -486 Descending FlightAware ADS-B
Mon 07:39:28 PM -33.8580 141.2170 323° Northwest 412 474 36,000  Level FlightAware ADS-B
Mon 07:40:03 PM -33.8050 141.1700 324° Northwest 412 474 36,000 247 Level FlightAware ADS-B
Mon 07:40:41 PM -33.7448 141.1158 324° Northwest 408 470 36,300  Climbing Aus ATC (RADAR)
Mon 07:40:43 PM -33.7430 141.1140 324° Northwest 410 472 36,000 -563 Descending FlightAware ADS-B
Mon 07:41:13 PM -33.6970 141.0730 324° Northwest 409 471 36,000 545 Level FlightAware ADS-B
Mon 07:41:16 PM -33.6918 141.0685 324° Northwest 409 471 36,300  Climbing Aus ATC (RADAR)
Mon 07:41:48 PM -33.6470 141.0290 324° Northwest 408 470 36,000 -265 Descending FlightAware ADS-B
Mon 07:42:24 PM -33.5920 140.9800 324° Northwest 408 470 36,000 474 Level FlightAware ADS-B
Mon 07:42:26 PM -33.5854 140.9740 324° Northwest 406 467 36,300  Climbing Aus ATC (RADAR)
Mon 07:42:58 PM -33.5380 140.9320 324° Northwest 408 470 36,000  Descending FlightAware ADS-B
Mon 07:43:01 PM -33.5327 140.9270 324° Northwest 407 468 36,300  Climbing Aus ATC (RADAR)
Mon 07:43:33 PM -33.4870 140.8870 324° Northwest 408 470 36,000 -250 Descending FlightAware ADS-B
Mon 07:44:13 PM -33.4260 140.8330 324° Northwest 407 468 36,000  Level FlightAware ADS-B
Mon 07:44:43 PM -33.3800 140.7920 324° Northwest 407 468 36,000 545 Level FlightAware ADS-B
Mon 07:44:46 PM -33.3735 140.7864 324° Northwest 406 467 36,300  Climbing Aus ATC (RADAR)
Mon 07:45:18 PM -33.3240 140.7430 324° Northwest 406 467 36,000  Descending FlightAware ADS-B
Mon 07:45:21 PM -33.3203 140.7394 324° Northwest 407 468 36,300  Climbing Aus ATC (RADAR)
Mon 07:45:53 PM -33.2740 140.6990 324° Northwest 405 466 36,000 -269 Descending FlightAware ADS-B
Mon 07:46:28 PM -33.2220 140.6530 323° Northwest 403 464 36,000  Level FlightAware ADS-B
Mon 07:47:03 PM -33.1680 140.6060 324° Northwest 400 460 36,000  Level FlightAware ADS-B
Mon 07:47:43 PM -33.1080 140.5520 323° Northwest 399 459 36,000  Level FlightAware ADS-B
Mon 07:48:13 PM -33.0620 140.5130 325° Northwest 398 458 36,000  Level FlightAware ADS-B
Mon 07:48:50 PM -33.0090 140.4660 323° Northwest 395 455 36,000  Level FlightAware ADS-B
Mon 07:49:25 PM -32.9580 140.4220 324° Northwest 386 444 36,000  Level FlightAware ADS-B
Mon 07:50:00 PM -32.9060 140.3760 323° Northwest 386 444 36,000  Level FlightAware ADS-B
Mon 07:50:35 PM -32.8570 140.3340 324° Northwest 385 443 36,000  Level FlightAware ADS-B
Mon 07:51:13 PM -32.8050 140.2880 323° Northwest 391 450 36,000  Level FlightAware ADS-B
Mon 07:51:48 PM -32.7500 140.2410 324° Northwest 391 450 36,000  Level FlightAware ADS-B
Mon 07:52:29 PM -32.6960 140.1940 324° Northwest 390 449 36,000  Level FlightAware ADS-B
Mon 07:52:58 PM -32.6500 140.1540 324° Northwest 389 448 36,000  Level FlightAware ADS-B
Mon 07:53:43 PM -32.5820 140.0960 324° Northwest 386 444 36,000  Level FlightAware ADS-B
Mon 07:54:18 PM -32.5330 140.0540 324° Northwest 385 443 36,000 269 Level FlightAware ADS-B
Mon 07:54:50 PM -32.4833 140.0111 324° Northwest 386 444 36,300  Climbing Aus ATC (RADAR)
Mon 07:54:50 PM -32.4840 140.0120 324° Northwest 383 441 36,000  Descending FlightAware ADS-B
Mon 07:55:25 PM -32.4336 139.9683 324° Northwest 382 440 36,300  Climbing Aus ATC (RADAR)
Mon 07:55:30 PM -32.4270 139.9620 324° Northwest 382 440 36,000 -450 Descending FlightAware ADS-B
Mon 07:56:05 PM -32.3770 139.9190 324° Northwest 382 440 36,000  Level FlightAware ADS-B
Mon 07:56:40 PM -32.3270 139.8770 325° Northwest 382 440 36,000  Level FlightAware ADS-B
Mon 07:57:20 PM -32.2700 139.8280 324° Northwest 383 441 36,000  Level FlightAware ADS-B
Mon 07:57:56 PM -32.2200 139.7850 324° Northwest 382 440 36,000  Level FlightAware ADS-B
Mon 07:58:30 PM -32.1750 139.7470 324° Northwest 382 440 36,000 281 Level FlightAware ADS-B
Mon 07:59:00 PM -32.1259 139.7049 324° Northwest 381 438 36,300  Climbing Aus ATC (RADAR)
Mon 07:59:05 PM -32.1190 139.6990 324° Northwest 382 440 36,000  Descending FlightAware ADS-B
Mon 07:59:35 PM -32.0756 139.6627 324° Northwest 381 438 36,300  Climbing Aus ATC (RADAR)
Mon 07:59:55 PM -32.0590 139.6470 324° Northwest 382 440 36,000 -327 Descending FlightAware ADS-B
Mon 08:00:30 PM -32.0040 139.6010 325° Northwest 382 440 36,000  Level FlightAware ADS-B
Mon 08:01:07 PM -31.9590 139.5620 324° Northwest 382 440 36,000 240 Level FlightAware ADS-B
Mon 08:01:45 PM -31.8891 139.5027 324° Northwest 387 445 36,300  Climbing Aus ATC (RADAR)
Mon 08:01:52 PM -31.8900 139.5040 324° Northwest 381 438 36,000 -419 Descending FlightAware ADS-B
Mon 08:02:28 PM -31.8460 139.4670 324° Northwest 381 438 36,000 265 Level FlightAware ADS-B
Mon 08:03:00 PM -31.7823 139.4139 324° Northwest 381 438 36,300  Climbing Aus ATC (RADAR)
Mon 08:03:04 PM -31.8030 139.4300 324° Northwest 381 438 36,000 -450 Descending FlightAware ADS-B
Mon 08:03:40 PM -31.7590 139.3920 324° Northwest 381 438 36,000  Level FlightAware ADS-B
Mon 08:04:16 PM -31.7150 139.3550 324° Northwest 381 438 36,000  Level FlightAware ADS-B
Mon 08:04:53 PM -31.6710 139.3170 324° Northwest 381 438 36,000 265 Level FlightAware ADS-B
Mon 08:05:24 PM -31.5769 139.2409 324° Northwest 376 433 36,300  Climbing Aus ATC (RADAR)
Mon 08:05:29 PM -31.6270 139.2790 324° Northwest 381 438 36,000  Descending FlightAware ADS-B
Mon 08:06:04 PM -31.5204 139.1938 324° Northwest 375 432 36,300  Climbing Aus ATC (RADAR)
Mon 08:06:05 PM -31.5830 139.2420 324° Northwest 381 438 36,000  Descending FlightAware ADS-B
Mon 08:06:39 PM -31.4711 139.1513 324° Northwest 377 434 36,300  Climbing Aus ATC (RADAR)
Mon 08:06:41 PM -31.5400 139.2050 324° Northwest 381 438 36,000 -474 Descending FlightAware ADS-B
Mon 08:07:17 PM -31.4960 139.1680 324° Northwest 381 438 36,000  Level FlightAware ADS-B
Mon 08:07:53 PM -31.4520 139.1310 324° Northwest 381 438 36,000  Level FlightAware ADS-B
Mon 08:08:29 PM -31.4090 139.0940 324° Northwest 381 438 36,000  Level FlightAware ADS-B
Mon 08:09:07 PM -31.3630 139.0540 323° Northwest 381 438 36,000 257 Level FlightAware ADS-B
Mon 08:09:39 PM -31.2194 138.9408 323° Northwest 373 429 36,300  Climbing Aus ATC (RADAR)
Mon 08:09:43 PM -31.3190 139.0170 323° Northwest 381 438 36,000 -450 Descending FlightAware ADS-B
Mon 08:10:19 PM -31.2750 138.9800 324° Northwest 381 438 36,000  Level FlightAware ADS-B
Mon 08:10:55 PM -31.2320 138.9430 324° Northwest 381 438 36,000 257 Level FlightAware ADS-B
Mon 08:11:29 PM -31.0644 138.8159 324° Northwest 373 429 36,300 261 Climbing Aus ATC (RADAR)
Mon 08:12:04 PM -31.0153 138.7741 324° Northwest 371 427 36,300  Level Aus ATC (RADAR)
Mon 08:12:44 PM -30.9585 138.7239 323° Northwest 380 437 36,300  Level Aus ATC (RADAR)
Mon 08:13:14 PM -30.9161 138.6903 326° Northwest 376 433 36,300  Level Aus ATC (RADAR)
Mon 08:13:49 PM -30.8667 138.6530 327° Northwest 372 428 36,300  Level Aus ATC (RADAR)
Mon 08:14:39 PM -30.7956 138.5948 325° Northwest 374 430 36,300 -7 Level Aus ATC (RADAR)
Mon 08:17:04 PM -30.5553 138.4189 328° Northwest 36,000 -7 Descending Aus ATC (Calculated)
Mon 08:19:00 PM -30.3936 138.3026 328° Northwest  Level Estimated
Mon 08:20:00 PM -30.3100 138.2426 328° Northwest  Level Estimated
Mon 08:21:00 PM -30.2263 138.1827 328° Northwest  Level Estimated
Mon 08:21:58 PM -30.1191 138.1022 328° Northwest 36,000  Level Aus ATC (Calculated)
Mon 08:22:00 PM -30.1426 138.1229 328° Northwest  Level Estimated
Mon 08:23:00 PM -30.0326 138.0405 328° Northwest  Level Estimated
Mon 08:24:00 PM -29.9488 137.9810 328° Northwest  Level Estimated
Mon 08:25:00 PM -29.8650 137.9216 328° Northwest  Level Estimated
Mon 08:26:00 PM -29.7811 137.8623 328° Northwest  Level Estimated
Mon 08:26:58 PM -29.7050 137.8045 328° Northwest 36,000  Level Aus ATC (Calculated)
Mon 08:27:00 PM -29.6972 137.8031 328° Northwest  Level Estimated
Mon 08:28:00 PM -29.6177 137.7431 329° Northwest  Level Estimated
Mon 08:29:00 PM -29.5332 137.6837 329° Northwest  Level Estimated
Mon 08:30:00 PM -29.4487 137.6244 329° Northwest  Level Estimated
Mon 08:31:00 PM -29.3642 137.5653 329° Northwest  Level Estimated
Mon 08:31:58 PM -29.2882 137.5079 328° Northwest 36,000  Level Aus ATC (Calculated)
Mon 08:32:00 PM -29.2796 137.5062 329° Northwest  Level Estimated
Mon 08:33:00 PM -29.2008 137.4470 329° Northwest  Level Estimated
Mon 08:34:00 PM -29.1162 137.3882 329° Northwest  Level Estimated
Mon 08:34:13 PM -29.0883 137.3667 329° Northwest 36,000  Level Aus ATC (Calculated)
Mon 08:35:37 PM -28.9800 137.2904 329° Northwest 36,000  Level Aus ATC (Calculated)
Mon 08:35:58 PM -28.9800 137.2904 329° Northwest 36,000  Level Aus ATC (Calculated)
Mon 08:36:58 PM -28.8851 137.2238 329° Northwest 36,000  Level Aus ATC (Calculated)
Mon 08:37:00 PM -28.8924 137.2299 329° Northwest  Level Estimated
Mon 08:37:42 PM -28.8021 137.1656 329° Northwest 36,000  Level Aus ATC (Calculated)
Mon 08:39:00 PM -28.6918 137.0898 329° Northwest  Level Estimated
Mon 08:39:57 PM -28.5840 137.0132 329° Northwest 36,000  Level Aus ATC (Calculated)
Mon 08:40:00 PM -28.6070 137.0316 329° Northwest  Level Estimated
Mon 08:40:03 PM -28.5840 137.0132 329° Northwest 36,000  Level Aus ATC (Calculated)
Mon 08:42:00 PM -28.4185 136.9002 329° Northwest  Level Estimated
Mon 08:42:37 PM -28.3567 136.8552 329° Northwest 36,000  Level Aus ATC (Calculated)
Mon 08:43:22 PM -28.2885 136.8080 329° Northwest 36,000  Level Aus ATC (Calculated)
Mon 08:45:00 PM -28.1487 136.7133 329° Northwest  Level Estimated
Mon 08:46:00 PM -28.0632 136.6554 329° Northwest  Level Estimated
Mon 08:47:00 PM -27.9776 136.5976 329° Northwest  Level Estimated
Mon 08:48:00 PM -27.8920 136.5399 329° Northwest  Level Estimated
Mon 08:48:16 PM -27.8366 136.5003 329° Northwest 36,000  Level Aus ATC (Calculated)
Mon 08:49:31 PM -27.7406 136.4354 329° Northwest 36,000  Level Aus ATC (Calculated)
Mon 08:51:00 PM -27.6134 136.3503 329° Northwest  Level Estimated
Mon 08:52:00 PM -27.5277 136.2931 329° Northwest  Level Estimated
Mon 08:53:00 PM -27.4419 136.2359 329° Northwest  Level Estimated
Mon 08:54:00 PM -27.3561 136.1789 329° Northwest  Level Estimated
Mon 08:54:30 PM -27.2602 136.1129 329° Northwest 36,000  Level Aus ATC (Calculated)
Mon 08:55:00 PM -27.2703 136.1219 329° Northwest  Level Estimated
Mon 08:56:00 PM -27.1314 136.0277 330° Northwest  Level Estimated
Mon 08:57:00 PM -27.0455 135.9710 330° Northwest  Level Estimated
Mon 08:58:00 PM -26.9596 135.9144 330° Northwest  Level Estimated
Mon 08:58:38 PM -26.7650 135.7840 330° Northwest 407 468 36,000  Level FlightAware ADS-B
Mon 08:59:00 PM -26.8736 135.8578 330° Northwest  Level Estimated
Mon 08:59:10 PM -26.7130 135.7490 329° Northwest 405 466 36,000  Level FlightAware ADS-B
Mon 08:59:30 PM -26.8272 135.8250 329° Northwest 36,000  Level Aus ATC (Calculated)
Mon 08:59:45 PM -26.6560 135.7120 329° Northwest 404 465 36,000  Level FlightAware ADS-B
Mon 09:00:18 PM -26.6030 135.6770 329° Northwest 402 463 36,000  Level FlightAware ADS-B
Mon 09:00:25 PM -26.7309 135.7613 329° Northwest 36,000  Level Aus ATC (Calculated)
Mon 09:00:41 PM -26.7309 135.7613 329° Northwest 36,000  Level Aus ATC (Calculated)
Mon 09:00:56 PM -26.5440 135.6370 329° Northwest 397 457 36,000  Level FlightAware ADS-B
Mon 09:01:25 PM -26.4980 135.6040 327° Northwest 394 453 36,000  Level FlightAware ADS-B
Mon 09:02:14 PM -26.4240 135.5500 327° Northwest 395 455 36,000  Level FlightAware ADS-B
Mon 09:03:01 PM -26.3550 135.5010 328° Northwest 396 456 36,000  Level FlightAware ADS-B
Mon 09:03:40 PM -26.2900 135.4550 328° Northwest 397 457 36,000  Level FlightAware ADS-B
Mon 09:03:40 PM -26.4669 135.5875 326° Northwest 28,100  Descending Aus ATC (Calculated)
Mon 09:04:12 PM -26.2400 135.4200 328° Northwest 398 458 36,000 6,971 Climbing FlightAware ADS-B
Mon 09:04:48 PM -26.1830 135.3800 328° Northwest 399 459 36,000  Level FlightAware ADS-B
Mon 09:05:24 PM -26.1260 135.3400 328° Northwest 399 459 36,000  Level FlightAware ADS-B
Mon 09:05:30 PM -26.2510 135.4459 324° Northwest 28,100  Descending Aus ATC (Calculated)
Mon 09:06:04 PM -26.0640 135.2960 327° Northwest 401 461 36,000 6,971 Climbing FlightAware ADS-B
Mon 09:06:38 PM -26.0100 135.2580 327° Northwest 402 463 36,000  Level FlightAware ADS-B
Mon 09:07:14 PM -25.9550 135.2190 327° Northwest 404 465 36,000  Level FlightAware ADS-B
Mon 09:07:50 PM -25.8960 135.1770 327° Northwest 404 465 36,000  Level FlightAware ADS-B
Mon 09:08:26 PM -25.8410 135.1390 328° Northwest 406 467 36,000  Level FlightAware ADS-B
Mon 09:08:58 PM -25.7880 135.1020 328° Northwest 407 468 36,000  Level FlightAware ADS-B
Mon 09:09:32 PM -25.7340 135.0640 328° Northwest 408 470 36,000  Level FlightAware ADS-B
Mon 09:10:07 PM -25.6790 135.0250 327° Northwest 408 470 36,000  Level FlightAware ADS-B
Mon 09:10:29 PM -25.8188 135.1645 321° Northwest 28,100  Descending Aus ATC (Calculated)
Mon 09:10:42 PM -25.6220 134.9850 328° Northwest 408 470 36,000 9,294 Climbing FlightAware ADS-B
Mon 09:11:20 PM -25.5630 134.9440 328° Northwest 408 470 36,000  Level FlightAware ADS-B
Mon 09:11:56 PM -25.5060 134.9040 328° Northwest 409 471 36,000  Level FlightAware ADS-B
Mon 09:12:28 PM -25.4520 134.8670 328° Northwest 409 471 36,000  Level FlightAware ADS-B
Mon 09:13:02 PM -25.3980 134.8290 328° Northwest 410 472 36,000  Level FlightAware ADS-B
Mon 09:13:39 PM -25.3440 134.7920 328° Northwest 410 472 36,000  Level FlightAware ADS-B
Mon 09:14:12 PM -25.2860 134.7510 327° Northwest 410 472 36,000  Level FlightAware ADS-B
Mon 09:14:47 PM -25.4401 134.9198 318° Northwest 28,100  Descending Aus ATC (Calculated)
Mon 09:14:50 PM -25.2250 134.7080 327° Northwest 410 472 36,000 12,154 Climbing FlightAware ADS-B
Mon 09:15:26 PM -25.1680 134.6690 327° Northwest 411 473 36,000  Level FlightAware ADS-B
Mon 09:15:54 PM -25.3319 134.8502 318° Northwest 28,100  Descending Aus ATC (Calculated)
Mon 09:15:58 PM -25.1150 134.6330 327° Northwest 409 471 36,000 10,200 Climbing FlightAware ADS-B
Mon 09:16:04 PM -25.3319 134.8502 320° Northwest 28,100 -1,833 Descending Aus ATC (Calculated)
Mon 09:16:34 PM -25.0580 134.5930 327° Northwest 400 460 34,900 4,235 Climbing FlightAware ADS-B
Mon 09:17:12 PM -24.9980 134.5510 328° Northwest 407 468 32,900 -3,343 Descending FlightAware ADS-B
Mon 09:17:44 PM -24.9470 134.5170 329° Northwest 414 476 31,000 -3,529 Descending FlightAware ADS-B
Mon 09:17:48 PM -25.1694 134.7460 319° Northwest 28,100 -3,500 Descending Aus ATC (Calculated)
Mon 09:18:20 PM -24.8880 134.4760 329° Northwest 420 483 28,900 -1,147 Climbing FlightAware ADS-B
Mon 09:18:56 PM -24.8280 134.4340 328° Northwest 423 487 26,800 -3,127 Descending FlightAware ADS-B
Mon 09:19:28 PM -25.0069 134.6421 317° Northwest 28,100 -2,743 Climbing Aus ATC (Calculated)
Mon 09:19:31 PM -24.7710 134.3960 328° Northwest 415 478 25,200 -8,000 Descending FlightAware ADS-B
Mon 09:20:04 PM -24.7160 134.3570 327° Northwest 415 478 23,300 -2,957 Descending FlightAware ADS-B
Mon 09:20:40 PM -24.6580 134.3180 329° Northwest 400 460 21,800 -2,583 Descending FlightAware ADS-B
Mon 09:20:43 PM -24.8803 134.5616 317° Northwest 2,400 -2,667 Descending Aus ATC (Calculated)
Mon 09:21:08 PM -24.8803 134.5616 317° Northwest 2,400 32,364 Level Aus ATC (Calculated)
Mon 09:21:16 PM -24.6030 134.2800 329° Northwest 390 449 20,200 23,854 Climbing FlightAware ADS-B
Mon 09:21:49 PM -24.5530 134.2460 329° Northwest 382 440 18,700 -2,743 Descending FlightAware ADS-B
Mon 09:22:23 PM -24.7354 134.4698 315° West 2,400 -2,757 Descending Aus ATC (Calculated)
Mon 09:22:26 PM -24.4970 134.2070 328° Northwest 375 432 17,000 20,211 Climbing FlightAware ADS-B
Mon 09:23:01 PM -24.4460 134.1720 328° Northwest 371 427 15,200 -2,957 Descending FlightAware ADS-B
Mon 09:23:35 PM -24.3970 134.1390 328° Northwest 367 422 13,600 -2,727 Descending FlightAware ADS-B
Mon 09:24:07 PM -24.3520 134.1080 328° Northwest 364 419 12,200 -2,657 Descending FlightAware ADS-B
Mon 09:24:45 PM -24.2970 134.0700 328° Northwest 361 415 10,500 -1,973 Descending FlightAware ADS-B
Mon 09:25:18 PM -24.5181 134.3325 315° West 2,400 -1,200 Descending Aus ATC (Calculated)
Mon 09:25:20 PM -24.2500 134.0390 329° Northwest 334 384 9,800 18,522 Climbing FlightAware ADS-B
Mon 09:25:41 PM -24.2220 134.0190 327° Northwest 318 366 9,500 -1,333 Descending FlightAware ADS-B
Mon 09:26:05 PM -24.1920 133.9990 329° Northwest 309 356 8,800 -1,909 Descending FlightAware ADS-B
Mon 09:26:25 PM -24.1680 133.9830 329° Northwest 309 356 8,100 -2,063 Descending FlightAware ADS-B
Mon 09:26:37 PM -24.1540 133.9730 327° Northwest 312 359 7,700 -1,273 Descending FlightAware ADS-B
Mon 09:26:58 PM -24.1290 133.9560 328° Northwest 296 341 7,400 -682 Descending FlightAware ADS-B
Mon 09:27:21 PM -24.1020 133.9380 329° Northwest 275 316 7,200 -429 Descending FlightAware ADS-B
Mon 09:27:40 PM -24.0830 133.9250 328° Northwest 263 303 7,100 -375 Descending FlightAware ADS-B
Mon 09:27:53 PM -24.0700 133.9160 328° Northwest 260 299 7,000 -486 Descending FlightAware ADS-B
Mon 09:28:17 PM -24.0450 133.9010 331° Northwest 262 302 6,800 -545 Descending FlightAware ADS-B
Mon 09:28:17 PM -24.3006 134.1957 315° West 2,400 -600 Descending Aus ATC (Calculated)
Mon 09:28:37 PM -24.0210 133.8910 331° Northwest 264 304 6,600 5,850 Climbing FlightAware ADS-B
Mon 09:28:57 PM -23.9980 133.8820 340° North 260 299 6,300 -750 Descending FlightAware ADS-B
Mon 09:29:17 PM -23.9760 133.8730 340° North 250 288 6,100 -750 Descending FlightAware ADS-B
Mon 09:29:37 PM -23.9550 133.8640 339° North 242 278 5,800 -667 Descending FlightAware ADS-B
Mon 09:30:02 PM -23.9300 133.8540 340° North 232 267 5,600 -800 Descending FlightAware ADS-B
Mon 09:30:22 PM -23.9090 133.8460 341° North 228 262 5,200 -1,125 Descending FlightAware ADS-B
Mon 09:30:34 PM -23.8980 133.8410 337° Northwest 225 259 5,000 -1,029 Descending FlightAware ADS-B
Mon 09:30:57 PM -23.8750 133.8320 340° North 219 252 4,600 -1,067 Descending FlightAware ADS-B
Mon 09:31:17 PM -24.0830 134.0593 317° Northwest 2,400 -1,091 Descending Aus ATC (Calculated)
Mon 09:31:19 PM -23.8550 133.8230 340° North 214 246 4,200 7,385 Climbing FlightAware ADS-B
Mon 09:31:30 PM -23.8450 133.8200 345° North 209 241 4,000 -1,161 Descending FlightAware ADS-B
Mon 09:31:50 PM -23.8270 133.8130 340° North 191 220 3,600 -1,034 Descending FlightAware ADS-B
Mon 09:31:59 PM -23.8190 133.8110 347° North 182 209 3,500 -750 Descending FlightAware ADS-B
Mon 09:32:06 PM -23.8150 133.8100 347° North 175 201 3,400 -889 Descending FlightAware ADS-B
Mon 09:32:26 PM -23.8000 133.8140 14° North 166 191 3,100 -833 Descending FlightAware ADS-B
Mon 09:32:42 PM -23.7900 133.8220 36° Northeast 151 174 2,900 -783 Descending FlightAware ADS-B
Mon 09:32:49 PM -23.7870 133.8260 51° Northeast 149 171 2,800 -857 Descending FlightAware ADS-B
Mon 09:33:03 PM -23.7830 133.8350 64° Northeast 148 170 2,600 -818 Descending FlightAware ADS-B
Mon 09:33:11 PM -23.7810 133.8410 70° East 149 171 2,500 -429 Descending FlightAware ADS-B
Mon 09:33:17 PM -23.7810 133.8470 90° East 149 171 2,500 -667 Level FlightAware ADS-B
Mon 09:33:38 PM -23.7840 133.8600 104° East 148 170 2,200 -800 Descending FlightAware ADS-B
Mon 09:33:47 PM -23.7860 133.8660 110° East 147 169 2,100 -828 Descending FlightAware ADS-B
Mon 09:34:06 PM -23.8653 133.9234 331° Northwest 2,400 -900 Climbing Aus ATC (Calculated)
Mon 09:34:07 PM -23.7940 133.8800 122° Southeast 147 169 1,800 -2,400 Descending FlightAware ADS-B
Mon 09:34:26 PM -23.8000 133.8920 122° Southeast 150 173 1,600 -632 Descending FlightAware ADS-B
Mon 09:34:42 PM -23.7927 133.8782 120° Southeast 2,400 3,000 Climbing Aus ATC (Calculated)
Mon 09:34:48 PM -23.8070 133.9050 120° Southeast 105 121 -24,000 Descending FlightAware ADS-B

Login

Don't have an account? Register now (free) for customized features, flight alerts, and more!